Weather at Gilgal Airstrip

Public forecast

Using degrees Celsius for public forecast. Weather courtesy of forecast.io.

Closest aviation weather report (METAR) to Gilgal Airstrip

Closest report is Simanggang Airport, 51.6 nm (95.5 km) NNE. Retrieved 2021/10/16 03:00 UTC (22 minutes ago):

WBGY 160300Z VRB02KT 9999 FEW018 32/26 Q1008

Closest aviation forecast (TAF) to Gilgal Airstrip

Closest forecast is Kuching International Airport, 75.4 nm (139.7 km) NW. Retrieved 2021-10-16 00:10 UTC (3 hours ago):

TAF WBGG 152300Z 1600/1700 15005KT 9999 FEW020 TEMPO 1608/1612 28007KT 4000 TSRA FEW015CB